Terminal Aerodrome Forecast
Issued by NWS Mt. Holly, NJ

Home | Current Version | Previous Version | Text Only | Print | Product List | Glossary On
Versions: 1 2 3 4 5 6 7 8 9 10 11 12 13 14 15 16 17 18 19 20
000
FTUS41 KPHI 211400 AAA
TAFABE
TAF AMD
KABE 211434Z 2115/2212 VRB02KT 6SM BR OVC005
     FM211600 VRB04KT P6SM FEW005 BKN200
     FM211800 23007KT P6SM BKN250
      TEMPO 2121/2201 -SHRA
     FM220300 27005KT P6SM SCT050=

USA.gov is the U.S. government's official web portal to all federal, state and local government web resources and services.